Time;durP1;ratioP1;P1;durP2;ratioP2;P2;SDS_P1;SDS_P2;PMS_P1;PMS_P2;Temp;Humidity;BMP_temperature;BMP_pressure;BME280_temperature;BME280_humidity;BME280_pressure;Samples;Min_cycle;Max_cycle;Signal;HPM_P1;HPM_P2
2022/08/30 00:03:08;;;;;;;11.88;3.95;;;;;;;;;;4967563;28;20093;-90
2022/08/30 00:05:34;;;;;;;8.02;4.32;;;;;;;;;;4963568;28;20023;-90
2022/08/30 00:08:01;;;;;;;8.93;3.53;;;;;;;;;;4962798;28;20653;-90
2022/08/30 00:10:28;;;;;;;13.63;3.92;;;;;;;;;;4980646;28;20062;-90
2022/08/30 00:12:55;;;;;;;8.60;4.68;;;;;;;;;;4967550;28;20053;-90
2022/08/30 00:15:21;;;;;;;10.63;3.58;;;;;;;;;;4979784;28;20089;-90
2022/08/30 00:17:48;;;;;;;8.35;3.33;;;;;;;;;;4964725;28;20037;-90
2022/08/30 00:20:17;;;;;;;6.05;3.58;;;;;;;;;;4963719;28;20035;-89
2022/08/30 00:22:43;;;;;;;4.43;3.35;;;;;;;;;;4969088;28;20137;-89
2022/08/30 00:25:09;;;;;;;7.63;3.92;;;;;;;;;;4967906;28;20429;-88
2022/08/30 00:27:35;;;;;;;11.52;3.30;;;;;;;;;;4963683;28;20038;-88
2022/08/30 00:30:01;;;;;;;15.02;3.60;;;;;;;;;;4976101;28;20061;-89
2022/08/30 00:32:27;;;;;;;9.50;3.42;;;;;;;;;;4987557;28;20030;-89
2022/08/30 00:34:54;;;;;;;10.75;4.05;;;;;;;;;;4970156;28;20061;-89
2022/08/30 00:37:20;;;;;;;7.45;3.38;;;;;;;;;;4971204;28;20073;-90
2022/08/30 00:39:46;;;;;;;8.88;3.10;;;;;;;;;;4971994;28;20054;-89
2022/08/30 00:42:13;;;;;;;3.90;3.05;;;;;;;;;;4971510;28;20034;-88
2022/08/30 00:44:40;;;;;;;7.10;3.67;;;;;;;;;;4970505;28;20023;-88
2022/08/30 00:47:06;;;;;;;8.25;2.75;;;;;;;;;;4967034;28;20097;-89
2022/08/30 00:49:33;;;;;;;6.82;3.03;;;;;;;;;;4970558;28;20551;-89
2022/08/30 00:51:59;;;;;;;14.73;3.22;;;;;;;;;;4967757;28;20029;-89
2022/08/30 00:54:26;;;;;;;13.95;3.97;;;;;;;;;;4974643;28;20393;-89
2022/08/30 00:56:52;;;;;;;9.32;4.53;;;;;;;;;;4970554;28;20099;-89
2022/08/30 00:59:20;;;;;;;4.90;3.28;;;;;;;;;;4980092;28;20026;-89
2022/08/30 01:01:46;;;;;;;6.30;3.45;;;;;;;;;;4969860;28;20645;-89
2022/08/30 01:04:13;;;;;;;7.53;3.80;;;;;;;;;;4969670;28;20084;-89
2022/08/30 01:06:40;;;;;;;7.75;3.00;;;;;;;;;;4965515;28;20050;-88
2022/08/30 01:09:07;;;;;;;5.32;3.30;;;;;;;;;;4977989;28;20031;-89
2022/08/30 01:11:34;;;;;;;12.45;3.17;;;;;;;;;;4980369;28;20093;-88
2022/08/30 01:14:00;;;;;;;8.18;4.28;;;;;;;;;;4967957;28;20023;-89
2022/08/30 01:16:26;;;;;;;6.93;3.10;;;;;;;;;;4945980;28;20031;-89
2022/08/30 01:18:55;;;;;;;5.70;2.90;;;;;;;;;;4935014;28;20035;-89
2022/08/30 01:21:34;;;;;;;5.85;3.50;;;;;;;;;;4948913;28;20031;-89
2022/08/30 01:24:01;;;;;;;7.63;3.33;;;;;;;;;;4946241;28;20058;-88
2022/08/30 01:26:29;;;;;;;6.60;3.53;;;;;;;;;;4943980;28;20122;-89
2022/08/30 01:28:57;;;;;;;7.47;3.47;;;;;;;;;;4964239;28;20034;-89
2022/08/30 01:31:23;;;;;;;6.78;3.67;;;;;;;;;;4966584;28;20039;-89
2022/08/30 01:33:49;;;;;;;6.60;3.65;;;;;;;;;;4933906;28;20085;-89
2022/08/30 01:36:17;;;;;;;10.52;4.13;;;;;;;;;;4935428;28;20042;-88
2022/08/30 01:38:53;;;;;;;6.28;3.90;;;;;;;;;;4953680;28;20039;-89
2022/08/30 01:41:21;;;;;;;11.23;3.83;;;;;;;;;;4951270;28;20026;-89
2022/08/30 01:43:49;;;;;;;7.90;4.13;;;;;;;;;;4949660;28;20031;-88
2022/08/30 01:46:16;;;;;;;5.70;3.53;;;;;;;;;;4942423;28;20070;-88
2022/08/30 01:48:43;;;;;;;10.10;3.50;;;;;;;;;;4944441;28;20035;-87
2022/08/30 01:51:10;;;;;;;7.15;3.70;;;;;;;;;;4952590;28;20137;-88
2022/08/30 01:53:36;;;;;;;7.90;3.80;;;;;;;;;;4947139;28;20024;-87
2022/08/30 01:56:02;;;;;;;8.05;3.75;;;;;;;;;;4936995;28;20035;-88
2022/08/30 01:58:28;;;;;;;9.57;3.60;;;;;;;;;;4966291;28;20034;-88
2022/08/30 02:00:54;;;;;;;15.60;5.00;;;;;;;;;;4949997;28;20042;-88
2022/08/30 02:03:20;;;;;;;7.15;3.97;;;;;;;;;;4947521;28;20039;-88
2022/08/30 02:05:47;;;;;;;7.50;4.07;;;;;;;;;;4953972;28;20081;-89
2022/08/30 02:08:13;;;;;;;7.85;4.25;;;;;;;;;;4950822;28;20070;-89
2022/08/30 02:10:39;;;;;;;7.80;4.57;;;;;;;;;;4948862;28;20039;-89
2022/08/30 02:13:05;;;;;;;10.07;5.15;;;;;;;;;;4955018;28;20403;-89
2022/08/30 02:15:31;;;;;;;9.95;5.00;;;;;;;;;;4934158;28;20039;-89
2022/08/30 02:17:57;;;;;;;10.77;5.78;;;;;;;;;;4951731;28;20035;-89
2022/08/30 02:20:23;;;;;;;7.90;5.20;;;;;;;;;;4967177;28;20070;-89
2022/08/30 02:22:49;;;;;;;15.35;6.15;;;;;;;;;;4937645;28;20035;-89
2022/08/30 02:25:16;;;;;;;11.40;6.63;;;;;;;;;;4952439;28;20039;-88
2022/08/30 02:27:42;;;;;;;14.77;6.05;;;;;;;;;;4952627;28;20439;-89
2022/08/30 02:30:08;;;;;;;8.15;6.07;;;;;;;;;;4932186;28;20101;-90
2022/08/30 02:32:34;;;;;;;10.43;5.70;;;;;;;;;;4955388;28;20059;-89
2022/08/30 02:35:01;;;;;;;18.73;6.75;;;;;;;;;;4953244;28;20074;-89
2022/08/30 02:37:27;;;;;;;9.85;6.07;;;;;;;;;;4953821;28;20585;-88
2022/08/30 02:39:53;;;;;;;11.98;6.25;;;;;;;;;;4949013;28;20035;-89
2022/08/30 02:42:19;;;;;;;9.05;5.72;;;;;;;;;;4951557;28;20042;-89
2022/08/30 02:44:45;;;;;;;13.60;7.00;;;;;;;;;;4965473;28;20019;-89
2022/08/30 02:47:11;;;;;;;11.23;7.30;;;;;;;;;;4951819;28;20565;-89
2022/08/30 02:49:37;;;;;;;12.27;8.00;;;;;;;;;;4966782;28;20168;-89
2022/08/30 02:52:04;;;;;;;12.82;7.60;;;;;;;;;;4967285;28;20026;-90
2022/08/30 02:54:32;;;;;;;14.68;8.20;;;;;;;;;;4964383;28;20493;-89
2022/08/30 02:56:59;;;;;;;13.95;8.85;;;;;;;;;;4949653;28;20095;-89
2022/08/30 02:59:25;;;;;;;15.30;9.70;;;;;;;;;;4951201;28;20038;-89
2022/08/30 03:01:51;;;;;;;20.58;8.95;;;;;;;;;;4965691;28;20047;-89
2022/08/30 03:04:18;;;;;;;17.85;9.20;;;;;;;;;;4952534;28;20039;-89
2022/08/30 03:06:44;;;;;;;11.50;7.80;;;;;;;;;;4967484;28;20033;-89
2022/08/30 03:09:10;;;;;;;13.45;7.82;;;;;;;;;;4949724;28;20034;-89
2022/08/30 03:11:36;;;;;;;12.50;8.73;;;;;;;;;;4972774;28;20046;-90
2022/08/30 03:14:02;;;;;;;18.30;8.43;;;;;;;;;;4961418;28;20042;-90
2022/08/30 03:16:28;;;;;;;18.50;8.93;;;;;;;;;;4951333;28;20045;-90
2022/08/30 03:18:55;;;;;;;18.10;9.68;;;;;;;;;;4953776;28;20030;-90
2022/08/30 03:21:21;;;;;;;16.83;9.48;;;;;;;;;;4954958;28;20046;-90
2022/08/30 03:23:47;;;;;;;12.38;7.95;;;;;;;;;;4948694;28;20223;-90
2022/08/30 03:26:13;;;;;;;17.50;7.20;;;;;;;;;;4969645;28;20038;-89
2022/08/30 03:28:40;;;;;;;10.68;6.35;;;;;;;;;;4979448;28;20027;-89
2022/08/30 03:31:07;;;;;;;9.73;6.10;;;;;;;;;;4987009;28;20030;-90
2022/08/30 03:33:33;;;;;;;9.40;5.15;;;;;;;;;;4968418;28;20034;-88
2022/08/30 03:35:59;;;;;;;14.60;4.75;;;;;;;;;;4968696;28;20022;-88
2022/08/30 03:38:32;;;;;;;10.50;4.65;;;;;;;;;;4953649;28;20055;-89
2022/08/30 03:40:58;;;;;;;10.18;4.57;;;;;;;;;;4967198;28;20073;-88
2022/08/30 03:43:24;;;;;;;6.47;3.63;;;;;;;;;;4965131;28;20030;-88
2022/08/30 03:45:50;;;;;;;7.78;3.63;;;;;;;;;;4965293;28;20508;-88
2022/08/30 03:48:16;;;;;;;11.63;3.85;;;;;;;;;;4954214;28;20612;-89
2022/08/30 03:50:43;;;;;;;6.15;3.63;;;;;;;;;;4969930;28;20053;-89
2022/08/30 03:53:09;;;;;;;7.40;3.90;;;;;;;;;;4980225;28;20391;-89
2022/08/30 03:55:35;;;;;;;4.60;3.38;;;;;;;;;;4969595;28;20490;-89
2022/08/30 03:58:01;;;;;;;6.13;3.83;;;;;;;;;;4969724;28;20042;-88
2022/08/30 04:00:27;;;;;;;10.35;3.42;;;;;;;;;;4979331;28;20045;-89
2022/08/30 04:02:53;;;;;;;8.07;3.60;;;;;;;;;;4971992;28;20041;-89
2022/08/30 04:05:19;;;;;;;8.63;4.00;;;;;;;;;;4954183;28;20080;-89
2022/08/30 04:07:45;;;;;;;6.55;4.15;;;;;;;;;;4972905;28;20034;-89
2022/08/30 04:10:11;;;;;;;7.93;4.20;;;;;;;;;;4954672;28;20049;-89
2022/08/30 04:12:37;;;;;;;9.15;4.47;;;;;;;;;;4966751;28;20096;-88
2022/08/30 04:15:03;;;;;;;5.97;3.78;;;;;;;;;;4958493;28;20062;-88
2022/08/30 04:17:29;;;;;;;6.45;4.32;;;;;;;;;;4952618;28;20073;-90
2022/08/30 04:19:55;;;;;;;11.18;4.28;;;;;;;;;;4950772;28;20105;-89
2022/08/30 04:22:21;;;;;;;8.52;4.28;;;;;;;;;;4972766;28;20039;-89
2022/08/30 04:24:47;;;;;;;6.40;4.10;;;;;;;;;;4951134;28;20491;-90
2022/08/30 04:27:13;;;;;;;6.30;4.15;;;;;;;;;;4973829;28;20090;-90
2022/08/30 04:29:39;;;;;;;13.13;5.25;;;;;;;;;;4969182;28;20031;-88
2022/08/30 04:32:05;;;;;;;15.73;4.95;;;;;;;;;;4974192;28;20105;-89
2022/08/30 04:34:31;;;;;;;7.38;4.13;;;;;;;;;;4970715;28;20034;-89
2022/08/30 04:36:57;;;;;;;12.85;4.85;;;;;;;;;;4950057;28;20043;-90
2022/08/30 04:39:24;;;;;;;5.82;4.00;;;;;;;;;;4971679;28;20034;-90
2022/08/30 04:41:50;;;;;;;13.80;4.50;;;;;;;;;;4968123;28;20038;-90
2022/08/30 04:44:24;;;;;;;6.43;4.28;;;;;;;;;;4972167;28;20038;-89
2022/08/30 04:46:50;;;;;;;12.70;4.10;;;;;;;;;;4965499;28;20030;-89
2022/08/30 04:49:16;;;;;;;13.70;4.65;;;;;;;;;;4988163;28;20034;-89
2022/08/30 04:51:43;;;;;;;9.05;4.85;;;;;;;;;;4971187;28;21001;-89
2022/08/30 04:54:08;;;;;;;14.85;5.18;;;;;;;;;;4970246;28;20107;-89
2022/08/30 04:56:35;;;;;;;12.05;4.88;;;;;;;;;;4968520;28;20117;-89
2022/08/30 04:59:01;;;;;;;9.40;4.63;;;;;;;;;;4986258;28;20039;-89
2022/08/30 05:01:28;;;;;;;9.30;4.45;;;;;;;;;;4977121;28;20042;-89
2022/08/30 05:03:55;;;;;;;11.43;4.70;;;;;;;;;;4982388;28;20810;-89
2022/08/30 05:06:22;;;;;;;9.52;5.22;;;;;;;;;;4990767;28;20498;-89
2022/08/30 05:08:48;;;;;;;11.57;4.97;;;;;;;;;;4968547;28;20997;-89
2022/08/30 05:11:15;;;;;;;10.68;4.70;;;;;;;;;;4985210;28;20053;-87
2022/08/30 05:13:41;;;;;;;9.00;5.18;;;;;;;;;;4968702;28;20035;-87
2022/08/30 05:16:07;;;;;;;8.02;4.25;;;;;;;;;;4974649;28;20104;-88
2022/08/30 05:18:34;;;;;;;12.32;4.70;;;;;;;;;;4986913;28;20030;-87
2022/08/30 05:21:07;;;;;;;16.55;4.95;;;;;;;;;;4971091;28;20045;-87
2022/08/30 05:23:33;;;;;;;7.55;4.40;;;;;;;;;;4969299;28;20066;-88
2022/08/30 05:26:03;;;;;;;10.57;5.13;;;;;;;;;;4951827;28;20691;-87
2022/08/30 05:28:29;;;;;;;8.73;4.70;;;;;;;;;;4969447;28;20038;-88
2022/08/30 05:30:55;;;;;;;6.95;4.75;;;;;;;;;;4954744;28;20082;-87
2022/08/30 05:33:21;;;;;;;11.20;5.53;;;;;;;;;;4971873;28;20031;-88
2022/08/30 05:35:47;;;;;;;10.82;4.95;;;;;;;;;;4971812;28;20034;-88
2022/08/30 05:38:13;;;;;;;7.63;4.32;;;;;;;;;;4968428;28;20261;-88
2022/08/30 05:40:40;;;;;;;6.72;3.83;;;;;;;;;;4977352;28;20069;-88
2022/08/30 05:43:06;;;;;;;6.63;4.10;;;;;;;;;;4966447;28;20038;-88
2022/08/30 05:45:32;;;;;;;9.23;3.75;;;;;;;;;;4953352;28;20034;-88
2022/08/30 05:47:58;;;;;;;5.82;3.70;;;;;;;;;;4944448;28;20042;-88
2022/08/30 05:50:24;;;;;;;9.85;3.58;;;;;;;;;;4955803;28;20048;-88
2022/08/30 05:52:50;;;;;;;8.02;3.20;;;;;;;;;;4952681;28;20117;-88
2022/08/30 05:55:17;;;;;;;9.55;3.72;;;;;;;;;;4979632;28;20121;-88
2022/08/30 05:57:44;;;;;;;5.10;3.40;;;;;;;;;;4968292;28;20487;-88
2022/08/30 06:00:16;;;;;;;5.28;3.63;;;;;;;;;;4948075;28;20045;-88
2022/08/30 06:02:43;;;;;;;8.43;3.63;;;;;;;;;;4982434;28;20026;-88
2022/08/30 06:05:09;;;;;;;7.45;4.03;;;;;;;;;;4968289;28;20486;-88
2022/08/30 06:07:35;;;;;;;3.92;2.92;;;;;;;;;;4959327;28;20097;-88
2022/08/30 06:10:02;;;;;;;5.15;3.05;;;;;;;;;;4950662;28;20121;-88
2022/08/30 06:12:28;;;;;;;5.22;2.97;;;;;;;;;;4971948;28;20058;-89
2022/08/30 06:14:54;;;;;;;10.98;3.08;;;;;;;;;;4965183;28;20367;-89
2022/08/30 06:17:20;;;;;;;10.70;3.42;;;;;;;;;;4962748;28;20046;-88
2022/08/30 06:19:47;;;;;;;110.47;19.25;;;;;;;;;;4965723;28;20035;-88
2022/08/30 06:22:13;;;;;;;9.00;3.33;;;;;;;;;;4967072;28;20122;-88
2022/08/30 06:24:39;;;;;;;6.65;2.90;;;;;;;;;;4952202;28;20038;-88
2022/08/30 06:27:05;;;;;;;15.88;3.20;;;;;;;;;;4966201;28;20025;-88
2022/08/30 06:29:31;;;;;;;7.32;2.97;;;;;;;;;;4972336;28;20502;-88
2022/08/30 06:31:58;;;;;;;7.80;3.40;;;;;;;;;;4962647;28;20045;-89
2022/08/30 06:34:24;;;;;;;9.27;2.78;;;;;;;;;;4955011;28;20034;-88
2022/08/30 06:36:50;;;;;;;7.75;2.97;;;;;;;;;;4969135;28;20046;-89
2022/08/30 06:39:16;;;;;;;4.53;2.53;;;;;;;;;;4973465;28;20422;-88
2022/08/30 06:41:42;;;;;;;4.40;2.42;;;;;;;;;;4942250;28;20561;-89
2022/08/30 06:44:08;;;;;;;5.57;2.50;;;;;;;;;;4952894;28;20509;-89
2022/08/30 06:46:35;;;;;;;9.35;2.78;;;;;;;;;;4962078;28;20335;-88
2022/08/30 06:49:02;;;;;;;12.25;2.58;;;;;;;;;;4969680;28;20490;-88
2022/08/30 06:51:33;;;;;;;6.38;2.40;;;;;;;;;;4974459;28;20549;-88
2022/08/30 06:53:59;;;;;;;4.50;2.40;;;;;;;;;;4978318;28;20491;-88
2022/08/30 06:56:25;;;;;;;6.10;2.22;;;;;;;;;;4966060;28;20387;-89
2022/08/30 06:58:52;;;;;;;8.45;2.42;;;;;;;;;;4966690;28;20080;-89
2022/08/30 07:01:20;;;;;;;7.45;2.92;;;;;;;;;;4983282;28;20632;-88
2022/08/30 07:03:46;;;;;;;3.05;2.25;;;;;;;;;;4981583;28;20434;-89
2022/08/30 07:06:12;;;;;;;4.10;2.40;;;;;;;;;;4980684;28;20546;-89
2022/08/30 07:08:45;;;;;;;2.55;1.70;;;;;;;;;;4965694;28;20035;-89
2022/08/30 07:11:11;;;;;;;5.55;1.90;;;;;;;;;;4952798;28;20030;-90
2022/08/30 07:13:37;;;;;;;4.63;1.80;;;;;;;;;;4935833;28;20313;-90
2022/08/30 07:16:13;;;;;;;9.85;2.10;;;;;;;;;;4951165;28;20531;-89
2022/08/30 07:18:55;;;;;;;3.83;1.90;;;;;;;;;;4956613;28;20113;-90
2022/08/30 07:21:29;;;;;;;5.03;1.95;;;;;;;;;;4951993;28;20042;-89
2022/08/30 07:23:56;;;;;;;6.97;2.15;;;;;;;;;;4949336;28;20035;-89
2022/08/30 07:26:24;;;;;;;5.72;1.50;;;;;;;;;;4966536;28;20104;-90
2022/08/30 07:28:50;;;;;;;6.97;1.70;;;;;;;;;;4950452;28;20045;-90
2022/08/30 07:31:18;;;;;;;4.45;1.58;;;;;;;;;;4944338;28;20095;-89
2022/08/30 07:33:44;;;;;;;3.55;1.60;;;;;;;;;;4961249;28;20105;-89
2022/08/30 07:36:11;;;;;;;8.60;1.70;;;;;;;;;;4950973;28;20050;-90
2022/08/30 07:38:37;;;;;;;3.00;1.70;;;;;;;;;;4949535;28;20031;-90
2022/08/30 07:41:04;;;;;;;5.88;1.63;;;;;;;;;;4961218;28;20491;-90
2022/08/30 07:43:30;;;;;;;4.40;1.45;;;;;;;;;;4953837;28;20045;-89
2022/08/30 07:46:07;;;;;;;8.20;2.25;;;;;;;;;;4963635;28;20033;-90
2022/08/30 07:48:33;;;;;;;2.83;1.48;;;;;;;;;;4947106;28;20034;-92
2022/08/30 07:50:59;;;;;;;3.22;1.52;;;;;;;;;;4949816;28;20125;-92
2022/08/30 07:53:26;;;;;;;3.10;1.63;;;;;;;;;;4952327;28;20372;-92
2022/08/30 07:55:52;;;;;;;1.98;1.27;;;;;;;;;;4953687;28;20478;-92
2022/08/30 07:58:18;;;;;;;2.10;1.33;;;;;;;;;;4967001;28;20089;-92
2022/08/30 08:00:44;;;;;;;3.67;1.45;;;;;;;;;;4950134;28;20113;-92
2022/08/30 08:03:10;;;;;;;2.55;1.48;;;;;;;;;;4948713;28;20051;-92
2022/08/30 08:05:40;;;;;;;3.05;1.60;;;;;;;;;;4952810;28;20481;-92
2022/08/30 08:08:06;;;;;;;1.73;1.30;;;;;;;;;;4948758;28;20026;-92
2022/08/30 08:10:33;;;;;;;2.67;1.50;;;;;;;;;;4967595;28;20387;-92
2022/08/30 08:12:59;;;;;;;5.75;1.63;;;;;;;;;;4952638;28;20419;-92
2022/08/30 08:15:26;;;;;;;3.53;1.02;;;;;;;;;;4978802;28;20039;-92
2022/08/30 08:17:52;;;;;;;1.75;1.27;;;;;;;;;;4966584;28;20494;-90
2022/08/30 08:20:18;;;;;;;1.83;1.23;;;;;;;;;;4980604;28;20027;-90
2022/08/30 08:22:44;;;;;;;10.98;1.50;;;;;;;;;;4962791;28;20061;-88
2022/08/30 08:25:10;;;;;;;8.52;1.50;;;;;;;;;;4967306;28;20498;-90
2022/08/30 08:27:36;;;;;;;3.33;1.33;;;;;;;;;;4975486;28;20094;-90
2022/08/30 08:30:02;;;;;;;2.25;1.50;;;;;;;;;;4946970;28;20082;-92
2022/08/30 08:32:28;;;;;;;3.80;1.58;;;;;;;;;;4965871;28;20390;-92
2022/08/30 08:34:54;;;;;;;2.10;1.35;;;;;;;;;;4957262;28;20121;-92
2022/08/30 08:37:20;;;;;;;5.80;1.52;;;;;;;;;;4967272;28;20065;-92
2022/08/30 08:39:47;;;;;;;3.78;1.25;;;;;;;;;;4936972;28;20039;-91
2022/08/30 08:42:23;;;;;;;2.88;1.63;;;;;;;;;;4946902;28;20030;-91
2022/08/30 08:44:52;;;;;;;1.45;1.00;;;;;;;;;;4966653;28;20031;-91
2022/08/30 08:47:28;;;;;;;1.88;1.35;;;;;;;;;;4980992;28;20026;-91
2022/08/30 08:49:54;;;;;;;;;;;;;;;;;;4988750;28;20030;-91
2022/08/30 08:55:14;;;;;;;3.75;1.52;;;;;;;;;;4984350;28;20085;-91
2022/08/30 08:57:40;;;;;;;2.55;1.23;;;;;;;;;;4978495;28;20029;-91
2022/08/30 09:00:07;;;;;;;3.72;1.58;;;;;;;;;;4985901;28;20497;-91
2022/08/30 09:02:42;;;;;;;3.30;2.05;;;;;;;;;;4983683;28;20125;-90
2022/08/30 09:05:08;;;;;;;9.20;1.85;;;;;;;;;;4959573;28;20660;-91
2022/08/30 09:07:36;;;;;;;3.05;1.60;;;;;;;;;;4978799;28;20031;-91
2022/08/30 09:10:02;;;;;;;5.38;1.17;;;;;;;;;;4983153;28;20037;-92
2022/08/30 09:12:28;;;;;;;3.50;1.98;;;;;;;;;;4976971;28;20299;-91
2022/08/30 09:14:57;;;;;;;2.63;1.77;;;;;;;;;;4984260;28;20686;-91
2022/08/30 09:17:23;;;;;;;20.17;3.30;;;;;;;;;;4986474;28;20023;-91
2022/08/30 09:19:52;;;;;;;2.47;1.55;;;;;;;;;;4953106;28;20034;-91
2022/08/30 09:22:25;;;;;;;6.78;1.52;;;;;;;;;;4966304;28;20561;-91
2022/08/30 09:24:59;;;;;;;2.67;1.95;;;;;;;;;;4967855;28;20184;-91
2022/08/30 09:27:36;;;;;;;2.50;1.52;;;;;;;;;;4971742;28;20026;-91
2022/08/30 09:30:14;;;;;;;52.30;7.63;;;;;;;;;;4973767;28;20034;-91
2022/08/30 09:32:42;;;;;;;3.65;1.90;;;;;;;;;;4969394;28;20021;-90
2022/08/30 09:35:10;;;;;;;2.30;1.25;;;;;;;;;;4968433;28;20082;-91
2022/08/30 09:37:38;;;;;;;2.33;1.50;;;;;;;;;;4987225;28;20121;-91
2022/08/30 09:40:09;;;;;;;1.38;1.20;;;;;;;;;;4976168;28;20417;-91
2022/08/30 09:42:36;;;;;;;2.80;1.40;;;;;;;;;;4983719;28;20569;-90
2022/08/30 09:45:11;;;;;;;4.78;1.88;;;;;;;;;;4971340;28;20576;-91
2022/08/30 09:47:39;;;;;;;2.03;1.40;;;;;;;;;;4988134;28;20050;-91
2022/08/30 09:50:08;;;;;;;3.50;1.65;;;;;;;;;;4981768;28;20398;-91
2022/08/30 09:52:56;;;;;;;2.83;1.13;;;;;;;;;;4984034;28;20097;-91
2022/08/30 09:55:48;;;;;;;1.58;1.45;;;;;;;;;;4966653;28;20061;-91
2022/08/30 09:58:22;;;;;;;2.83;1.60;;;;;;;;;;4983736;28;20031;-91
2022/08/30 10:00:52;;;;;;;3.05;1.10;;;;;;;;;;4965929;28;20035;-90
2022/08/30 10:03:24;;;;;;;5.25;1.30;;;;;;;;;;4983558;28;20031;-91
2022/08/30 10:06:09;;;;;;;3.80;1.40;;;;;;;;;;4984011;28;20027;-91
2022/08/30 10:08:48;;;;;;;2.30;1.30;;;;;;;;;;4963542;28;20081;-91
2022/08/30 10:11:31;;;;;;;4.78;1.10;;;;;;;;;;4970689;28;20038;-90
2022/08/30 10:14:06;;;;;;;4.05;1.30;;;;;;;;;;4970570;28;20384;-91
2022/08/30 10:16:35;;;;;;;2.40;1.52;;;;;;;;;;4965588;28;20034;-91
2022/08/30 10:19:20;;;;;;;2.88;1.80;;;;;;;;;;4965122;28;20439;-91
2022/08/30 10:21:46;;;;;;;2.90;1.50;;;;;;;;;;4969772;28;20038;-90
2022/08/30 10:24:16;;;;;;;2.53;1.45;;;;;;;;;;4964072;28;20035;-91
2022/08/30 10:27:06;;;;;;;2.10;1.10;;;;;;;;;;4964613;28;20034;-91
2022/08/30 10:29:36;;;;;;;1.88;0.90;;;;;;;;;;4979836;28;20506;-90
2022/08/30 10:32:03;;;;;;;2.63;1.27;;;;;;;;;;4979281;28;20636;-91
2022/08/30 10:34:41;;;;;;;2.17;1.17;;;;;;;;;;4967939;28;20525;-91
2022/08/30 10:37:09;;;;;;;4.88;1.75;;;;;;;;;;4969201;28;20084;-91
2022/08/30 10:39:57;;;;;;;4.90;1.20;;;;;;;;;;4971845;28;20689;-90
2022/08/30 10:42:30;;;;;;;2.53;1.95;;;;;;;;;;4965962;28;20118;-91
2022/08/30 10:45:03;;;;;;;4.35;1.58;;;;;;;;;;4964793;28;20031;-91
2022/08/30 10:47:40;;;;;;;2.67;1.20;;;;;;;;;;4966120;28;20038;-91
2022/08/30 10:50:06;;;;;;;4.07;1.27;;;;;;;;;;4966935;28;20038;-91
2022/08/30 10:52:55;;;;;;;1.83;1.00;;;;;;;;;;4971130;28;20074;-91
2022/08/30 10:55:26;;;;;;;1.90;1.23;;;;;;;;;;4966311;28;20038;-91
2022/08/30 10:57:52;;;;;;;1.40;1.17;;;;;;;;;;4982495;28;20034;-91
2022/08/30 11:00:29;;;;;;;2.78;1.58;;;;;;;;;;4959213;28;20105;-91
2022/08/30 11:02:55;;;;;;;5.55;1.60;;;;;;;;;;4960807;28;20041;-90
2022/08/30 11:05:21;;;;;;;2.63;1.50;;;;;;;;;;4986224;28;20256;-91
2022/08/30 11:07:53;;;;;;;2.45;1.55;;;;;;;;;;4985619;28;20090;-91
2022/08/30 11:10:46;;;;;;;2.90;1.58;;;;;;;;;;4958603;28;20073;-91
2022/08/30 11:13:30;;;;;;;2.83;1.55;;;;;;;;;;4980964;28;20110;-91
2022/08/30 11:15:59;;;;;;;1.70;1.10;;;;;;;;;;4969404;28;20045;-91
2022/08/30 11:18:26;;;;;;;3.80;1.50;;;;;;;;;;4972980;28;20030;-91
2022/08/30 11:20:55;;;;;;;9.40;1.30;;;;;;;;;;4967928;28;20060;-91
2022/08/30 11:23:29;;;;;;;2.95;1.35;;;;;;;;;;4971448;28;20050;-91
2022/08/30 11:26:01;;;;;;;2.17;1.20;;;;;;;;;;4965158;28;20040;-91
2022/08/30 11:28:37;;;;;;;12.52;1.70;;;;;;;;;;4971849;28;20034;-90
2022/08/30 11:31:09;;;;;;;2.88;1.48;;;;;;;;;;4966838;28;20037;-91
2022/08/30 11:33:46;;;;;;;2.85;1.30;;;;;;;;;;4967961;28;20032;-90
2022/08/30 11:36:37;;;;;;;5.63;1.33;;;;;;;;;;4967767;28;20036;-91
2022/08/30 11:39:11;;;;;;;3.33;1.80;;;;;;;;;;4967781;28;20026;-89
2022/08/30 11:41:42;;;;;;;4.15;2.13;;;;;;;;;;4970961;28;20030;-91
2022/08/30 11:44:21;;;;;;;3.90;1.40;;;;;;;;;;4971496;28;20536;-91
2022/08/30 11:46:48;;;;;;;4.35;1.92;;;;;;;;;;4965537;28;20034;-91
2022/08/30 11:49:17;;;;;;;2.50;1.13;;;;;;;;;;4954169;28;20027;-91
2022/08/30 11:52:03;;;;;;;2.90;1.40;;;;;;;;;;4977181;28;20557;-91
2022/08/30 11:54:47;;;;;;;4.32;1.30;;;;;;;;;;4966179;28;20050;-90
2022/08/30 11:57:22;;;;;;;1.42;1.13;;;;;;;;;;4963195;28;20031;-91
2022/08/30 11:59:51;;;;;;;1.98;1.23;;;;;;;;;;4979440;28;20126;-90
2022/08/30 12:02:36;;;;;;;3.20;1.55;;;;;;;;;;4967072;28;20023;-91
2022/08/30 12:05:02;;;;;;;2.22;1.50;;;;;;;;;;4987684;28;20086;-91
2022/08/30 12:07:47;;;;;;;2.67;1.48;;;;;;;;;;4969746;28;20035;-91
2022/08/30 12:10:22;;;;;;;3.97;1.33;;;;;;;;;;4985886;28;20469;-90
2022/08/30 12:12:56;;;;;;;3.58;1.50;;;;;;;;;;4974096;28;20058;-91
2022/08/30 12:15:28;;;;;;;2.45;1.30;;;;;;;;;;4973092;28;20505;-90
2022/08/30 12:20:44;;;;;;;2.13;1.15;;;;;;;;;;4976926;28;20053;-91
2022/08/30 12:23:19;;;;;;;5.97;1.50;;;;;;;;;;4969588;28;20034;-91
2022/08/30 12:25:45;;;;;;;;;;;;;;;;;;4971802;28;20092;-91
2022/08/30 12:28:29;;;;;;;1.30;1.20;;;;;;;;;;4968502;28;20310;-90
2022/08/30 12:31:06;;;;;;;2.58;1.35;;;;;;;;;;4971787;28;20050;-91
2022/08/30 12:33:37;;;;;;;1.38;1.27;;;;;;;;;;4973651;28;20478;-91
2022/08/30 12:36:03;;;;;;;3.58;1.38;;;;;;;;;;4968870;28;20505;-90
2022/08/30 12:38:30;;;;;;;2.50;1.38;;;;;;;;;;4989969;28;20474;-91
2022/08/30 12:40:59;;;;;;;4.63;1.38;;;;;;;;;;4969578;28;20545;-90
2022/08/30 12:43:27;;;;;;;3.60;1.20;;;;;;;;;;4964037;28;20038;-91
2022/08/30 12:45:55;;;;;;;6.28;1.40;;;;;;;;;;4964776;28;20065;-90
2022/08/30 12:48:21;;;;;;;2.63;1.30;;;;;;;;;;4969689;28;20402;-91
2022/08/30 12:50:50;;;;;;;3.75;1.30;;;;;;;;;;4972012;28;20027;-90
2022/08/30 12:53:21;;;;;;;4.40;1.50;;;;;;;;;;4970198;28;20027;-91
2022/08/30 12:56:00;;;;;;;3.00;1.38;;;;;;;;;;4969319;28;20030;-90
2022/08/30 12:58:46;;;;;;;3.85;1.35;;;;;;;;;;4970108;28;20027;-90
2022/08/30 13:01:18;;;;;;;4.63;1.35;;;;;;;;;;4971079;28;20042;-90
2022/08/30 13:03:53;;;;;;;1.92;1.27;;;;;;;;;;4970724;28;20034;-91
2022/08/30 13:06:35;;;;;;;1.92;1.35;;;;;;;;;;4965261;28;20098;-90
2022/08/30 13:09:01;;;;;;;3.05;1.50;;;;;;;;;;4967130;28;20033;-91
2022/08/30 13:11:27;;;;;;;2.20;1.45;;;;;;;;;;4977416;28;20049;-90
2022/08/30 13:13:57;;;;;;;4.30;1.17;;;;;;;;;;4969799;28;20495;-91
2022/08/30 13:16:35;;;;;;;1.00;0.90;;;;;;;;;;4967611;28;20814;-91
2022/08/30 13:19:20;;;;;;;2.25;1.38;;;;;;;;;;4974096;28;20038;-91
2022/08/30 13:21:53;;;;;;;2.43;1.50;;;;;;;;;;4969143;28;20034;-90
2022/08/30 13:24:20;;;;;;;2.10;1.10;;;;;;;;;;4971687;28;20348;-91
2022/08/30 13:26:46;;;;;;;4.10;1.23;;;;;;;;;;4957754;28;20119;-91
2022/08/30 13:29:17;;;;;;;1.27;1.15;;;;;;;;;;4967059;28;20031;-90
2022/08/30 13:31:44;;;;;;;2.65;1.20;;;;;;;;;;4979618;28;20038;-90
2022/08/30 13:34:10;;;;;;;1.73;1.10;;;;;;;;;;4967949;28;20041;-91
2022/08/30 13:36:39;;;;;;;2.08;1.33;;;;;;;;;;4956868;28;20027;-90
2022/08/30 13:39:05;;;;;;;3.80;1.00;;;;;;;;;;4983458;28;20027;-90
2022/08/30 13:41:31;;;;;;;1.85;1.23;;;;;;;;;;4980899;28;20065;-91
2022/08/30 13:43:57;;;;;;;2.28;1.30;;;;;;;;;;4980973;28;20046;-90
2022/08/30 13:46:25;;;;;;;3.25;1.20;;;;;;;;;;4951577;28;20034;-91
2022/08/30 13:49:06;;;;;;;4.00;1.70;;;;;;;;;;4953008;28;20346;-90
2022/08/30 13:51:32;;;;;;;4.38;1.10;;;;;;;;;;4971687;28;20125;-90
2022/08/30 13:53:59;;;;;;;3.05;1.25;;;;;;;;;;4969081;28;20022;-91
2022/08/30 13:56:30;;;;;;;4.35;1.40;;;;;;;;;;4951763;28;20386;-91
2022/08/30 13:58:56;;;;;;;4.25;1.35;;;;;;;;;;4970356;28;20062;-91
2022/08/30 14:01:22;;;;;;;8.35;1.60;;;;;;;;;;4971640;28;20050;-91
2022/08/30 14:03:48;;;;;;;2.55;1.42;;;;;;;;;;4961005;28;20491;-91
2022/08/30 14:06:14;;;;;;;1.88;1.00;;;;;;;;;;4970775;28;20382;-91
2022/08/30 14:08:40;;;;;;;4.13;1.02;;;;;;;;;;4973072;28;20030;-89
2022/08/30 14:11:08;;;;;;;1.30;1.13;;;;;;;;;;4975258;28;20042;-91
2022/08/30 14:13:34;;;;;;;2.70;0.98;;;;;;;;;;4957178;28;20057;-90
2022/08/30 14:16:01;;;;;;;2.22;1.10;;;;;;;;;;4968282;28;20039;-91
2022/08/30 14:18:27;;;;;;;1.88;1.10;;;;;;;;;;4967260;28;20566;-90
2022/08/30 14:20:53;;;;;;;1.13;1.02;;;;;;;;;;4940923;28;20035;-91
2022/08/30 14:23:19;;;;;;;1.58;1.13;;;;;;;;;;4938946;28;20061;-90
2022/08/30 14:25:45;;;;;;;1.00;0.88;;;;;;;;;;4959685;28;20035;-91
2022/08/30 14:28:11;;;;;;;2.53;1.25;;;;;;;;;;4958090;28;20046;-90
2022/08/30 14:30:37;;;;;;;3.28;1.45;;;;;;;;;;4989266;28;20030;-90
2022/08/30 14:33:04;;;;;;;1.10;1.00;;;;;;;;;;4971318;28;20049;-91
2022/08/30 14:35:30;;;;;;;1.52;1.08;;;;;;;;;;4986581;28;20037;-91
2022/08/30 14:37:56;;;;;;;2.55;1.92;;;;;;;;;;4966204;28;20498;-89
2022/08/30 14:40:25;;;;;;;6.40;1.08;;;;;;;;;;4956751;28;20050;-90
2022/08/30 14:42:51;;;;;;;4.00;1.50;;;;;;;;;;4966013;28;20085;-90
2022/08/30 14:45:17;;;;;;;1.08;0.98;;;;;;;;;;4954824;28;20065;-90
2022/08/30 14:47:43;;;;;;;2.90;1.25;;;;;;;;;;4951775;28;20046;-91
2022/08/30 14:50:09;;;;;;;2.63;1.20;;;;;;;;;;4968029;28;20030;-90
2022/08/30 14:52:35;;;;;;;6.65;1.25;;;;;;;;;;4966385;28;20022;-90
2022/08/30 14:55:03;;;;;;;4.57;1.40;;;;;;;;;;4963286;28;20406;-91
2022/08/30 14:57:29;;;;;;;2.85;1.38;;;;;;;;;;4989459;28;20045;-90